createdAt,value
2023-01-12T00:01:08.529Z,100832.47
2023-01-12T00:03:35.236Z,100831.34
2023-01-12T00:06:04.834Z,100832.31
2023-01-12T00:08:32.254Z,100836.03
2023-01-12T00:10:58.990Z,100839.66
2023-01-12T00:13:25.761Z,100840.69
2023-01-12T00:16:11.286Z,100845.72
2023-01-12T00:18:38.002Z,100847.41
2023-01-12T00:21:04.893Z,100842.28
2023-01-12T00:23:31.690Z,100842.94
2023-01-12T00:25:58.559Z,100844.78
2023-01-12T00:28:25.351Z,100843.06
2023-01-12T00:30:52.219Z,100849.34
2023-01-12T00:33:39.591Z,100854.66
2023-01-12T00:36:08.330Z,100858.00
2023-01-12T00:38:36.272Z,100847.91
2023-01-12T00:41:07.167Z,100861.81
2023-01-12T00:43:52.521Z,100869.50
2023-01-12T00:46:19.477Z,100869.59
2023-01-12T00:48:46.169Z,100876.72
2023-01-12T00:51:13.002Z,100875.75
2023-01-12T00:53:39.671Z,100883.53
2023-01-12T00:56:06.596Z,100896.69
2023-01-12T00:58:33.580Z,100898.63
2023-01-12T01:01:09.652Z,100895.63
2023-01-12T01:03:36.517Z,100901.53
2023-01-12T01:06:04.004Z,100905.47
2023-01-12T01:08:31.112Z,100914.22
2023-01-12T01:11:03.929Z,100915.72
2023-01-12T01:13:31.097Z,100916.03
2023-01-12T01:16:01.485Z,100906.81
2023-01-12T01:18:28.374Z,100902.75
2023-01-12T01:20:55.041Z,100912.56
2023-01-12T01:23:22.489Z,100919.50
2023-01-12T01:25:49.308Z,100925.00
2023-01-12T01:28:16.286Z,100913.03
2023-01-12T01:30:43.140Z,100904.44
2023-01-12T01:33:09.898Z,100902.09
2023-01-12T01:35:37.202Z,100898.03
2023-01-12T01:38:03.985Z,100899.25
2023-01-12T01:40:30.615Z,100905.19
2023-01-12T01:42:57.517Z,100896.47
2023-01-12T01:45:24.273Z,100893.09
2023-01-12T01:47:52.538Z,100886.94
2023-01-12T01:50:31.338Z,100888.91
2023-01-12T01:53:00.771Z,100887.56
2023-01-12T01:55:30.366Z,100894.87
2023-01-12T01:58:00.157Z,100895.84
2023-01-12T02:00:27.032Z,100885.41
2023-01-12T02:02:55.335Z,100871.88
2023-01-12T02:05:24.528Z,100863.28
2023-01-12T02:07:53.147Z,100869.53
2023-01-12T02:10:20.211Z,100855.94
2023-01-12T02:13:06.200Z,100860.53
2023-01-12T02:15:58.734Z,100849.81
2023-01-12T02:18:32.939Z,100844.56
2023-01-12T02:21:08.647Z,100839.50
2023-01-12T02:23:49.622Z,100842.03
2023-01-12T02:26:25.962Z,100844.56
2023-01-12T02:29:11.612Z,100850.03
2023-01-12T02:32:08.144Z,100849.03
2023-01-12T02:34:53.503Z,100846.69
2023-01-12T02:37:29.596Z,100837.50
2023-01-12T02:40:00.060Z,100842.91
2023-01-12T02:42:41.864Z,100846.13
2023-01-12T02:45:32.553Z,100844.84
2023-01-12T02:48:17.902Z,100842.66
2023-01-12T02:51:04.485Z,100847.00
2023-01-12T02:53:35.192Z,100861.75
2023-01-12T02:56:04.048Z,100861.00
2023-01-12T02:58:32.809Z,100870.34
2023-01-12T03:01:01.020Z,100872.81
2023-01-12T03:03:27.777Z,100873.53
2023-01-12T03:05:55.463Z,100877.06
2023-01-12T03:08:26.030Z,100885.19
2023-01-12T03:10:52.765Z,100880.72
2023-01-12T03:13:20.484Z,100874.69
2023-01-12T03:15:50.007Z,100871.34
2023-01-12T03:18:19.407Z,100861.91
2023-01-12T03:20:57.770Z,100869.75
2023-01-12T03:23:30.115Z,100875.69
2023-01-12T03:25:57.846Z,100870.81
2023-01-12T03:28:27.647Z,100885.16
2023-01-12T03:31:01.912Z,100895.59
2023-01-12T03:33:30.903Z,100878.88
2023-01-12T03:35:57.923Z,100886.28
2023-01-12T03:38:27.659Z,100883.94
2023-01-12T03:41:00.615Z,100902.72
2023-01-12T03:43:31.347Z,100890.69
2023-01-12T03:46:01.778Z,100891.88
2023-01-12T03:48:31.591Z,100907.16
2023-01-12T03:51:12.108Z,100900.69
2023-01-12T03:53:40.401Z,100906.34
2023-01-12T03:56:08.890Z,100904.09
2023-01-12T03:58:36.521Z,100912.81
2023-01-12T04:01:03.972Z,100915.37
2023-01-12T04:03:30.836Z,100907.28
2023-01-12T04:05:57.575Z,100913.59
2023-01-12T04:08:24.335Z,100923.41
2023-01-12T04:10:51.084Z,100923.69
2023-01-12T04:13:17.780Z,100926.41
2023-01-12T04:15:44.612Z,100928.16
2023-01-12T04:18:12.257Z,100920.50
2023-01-12T04:20:39.439Z,100916.19
2023-01-12T04:23:09.989Z,100913.41
2023-01-12T04:25:36.896Z,100928.06
2023-01-12T04:28:04.884Z,100924.94
2023-01-12T04:30:32.742Z,100922.97
2023-01-12T04:33:00.413Z,100933.34
2023-01-12T04:35:27.965Z,100930.81
2023-01-12T04:37:55.190Z,100922.38
2023-01-12T04:40:21.912Z,100929.31
2023-01-12T04:43:02.298Z,100928.34
2023-01-12T04:45:30.545Z,100935.22
2023-01-12T04:48:00.669Z,100942.69
2023-01-12T04:50:27.386Z,100936.44
2023-01-12T04:52:54.287Z,100923.94
2023-01-12T04:55:21.110Z,100928.22
2023-01-12T04:57:47.949Z,100933.69
2023-01-12T05:00:15.702Z,100920.06
2023-01-12T05:02:42.419Z,100924.78
2023-01-12T05:05:09.409Z,100925.31
2023-01-12T05:07:36.187Z,100937.66
2023-01-12T05:10:21.934Z,100926.03
2023-01-12T05:12:48.641Z,100924.63
2023-01-12T05:15:15.353Z,100917.78
2023-01-12T05:17:42.085Z,100929.31
2023-01-12T05:20:09.420Z,100934.63
2023-01-12T05:22:36.179Z,100929.09
2023-01-12T05:25:02.932Z,100933.66
2023-01-12T05:27:29.673Z,100936.97
2023-01-12T05:29:59.734Z,100932.78
2023-01-12T05:32:27.476Z,100941.94
2023-01-12T05:34:54.726Z,100954.03
2023-01-12T05:37:21.601Z,100936.75
2023-01-12T05:39:48.441Z,100944.31
2023-01-12T05:42:34.064Z,100934.78
2023-01-12T05:45:00.859Z,100936.38
2023-01-12T05:47:27.550Z,100934.72
2023-01-12T05:49:54.287Z,100948.50
2023-01-12T05:52:21.080Z,100947.38
2023-01-12T05:54:48.391Z,100953.13
2023-01-12T05:57:15.235Z,100947.75
2023-01-12T05:59:41.990Z,100947.44
2023-01-12T06:02:12.425Z,100943.38
2023-01-12T06:04:39.496Z,100945.91
2023-01-12T06:07:06.306Z,100945.94
2023-01-12T06:09:33.307Z,100947.47
2023-01-12T06:12:18.973Z,100944.16
2023-01-12T06:14:46.976Z,100961.59
2023-01-12T06:17:20.419Z,100953.25
2023-01-12T06:19:47.842Z,100957.91
2023-01-12T06:22:16.944Z,100944.59
2023-01-12T06:24:46.214Z,100949.25
2023-01-12T06:27:13.004Z,100944.84
2023-01-12T06:29:39.717Z,100958.78
2023-01-12T06:32:06.462Z,100955.87
2023-01-12T06:34:35.591Z,100956.53
2023-01-12T06:37:03.769Z,100961.78
2023-01-12T06:39:30.920Z,100954.59
2023-01-12T06:42:16.496Z,100958.31
2023-01-12T06:44:43.297Z,100961.66
2023-01-12T06:47:10.039Z,100968.59
2023-01-12T06:49:36.767Z,100987.78
2023-01-12T06:52:03.761Z,100984.75
2023-01-12T06:54:31.310Z,100984.50
2023-01-12T06:56:59.149Z,100989.91
2023-01-12T06:59:26.033Z,100994.94
2023-01-12T07:01:53.053Z,101008.50
2023-01-12T07:04:19.894Z,101002.72
2023-01-12T07:06:48.822Z,101019.31
2023-01-12T07:09:16.102Z,101006.87
2023-01-12T07:11:43.446Z,101012.81
2023-01-12T07:14:10.470Z,101025.53
2023-01-12T07:16:37.981Z,101018.12
2023-01-12T07:19:05.173Z,101022.03
2023-01-12T07:21:32.230Z,101017.88
2023-01-12T07:23:59.799Z,101019.16
2023-01-12T07:26:26.811Z,101032.28
2023-01-12T07:29:14.740Z,101029.53
2023-01-12T07:32:02.125Z,101042.72
2023-01-12T07:34:45.181Z,101039.41
2023-01-12T07:37:12.029Z,101025.34
2023-01-12T07:39:39.274Z,101028.22
2023-01-12T07:42:24.429Z,101035.50
2023-01-12T07:44:51.341Z,101035.41
2023-01-12T07:47:18.321Z,101036.38
2023-01-12T07:49:49.534Z,101039.06
2023-01-12T07:52:16.270Z,101047.72
2023-01-12T07:54:48.621Z,101041.81
2023-01-12T07:57:20.164Z,101037.16
2023-01-12T07:59:47.039Z,101033.69
2023-01-12T08:02:16.870Z,101035.06
2023-01-12T08:04:44.648Z,101026.19
2023-01-12T08:07:11.720Z,101022.44
2023-01-12T08:09:38.816Z,101027.59
2023-01-12T08:12:06.355Z,101028.50
2023-01-12T08:14:37.374Z,101030.66
2023-01-12T08:17:07.953Z,101028.72
2023-01-12T08:19:39.468Z,101036.47
2023-01-12T08:22:10.201Z,101036.56
2023-01-12T08:24:39.972Z,101051.47
2023-01-12T08:27:08.036Z,101042.47
2023-01-12T08:29:54.956Z,101043.53
2023-01-12T08:32:21.870Z,101043.37
2023-01-12T08:34:50.721Z,101045.34
2023-01-12T08:37:20.250Z,101057.31
2023-01-12T08:39:49.606Z,101058.19
2023-01-12T08:42:16.620Z,101067.16
2023-01-12T08:44:44.167Z,101063.78
2023-01-12T08:47:19.287Z,101055.72
2023-01-12T08:49:46.590Z,101053.84
2023-01-12T08:52:14.235Z,101056.38
2023-01-12T08:54:41.467Z,101063.69
2023-01-12T08:57:08.230Z,101060.25
2023-01-12T08:59:37.144Z,101057.09
2023-01-12T09:02:04.603Z,101067.69
2023-01-12T09:04:31.891Z,101062.06
2023-01-12T09:07:00.218Z,101067.06
2023-01-12T09:09:27.473Z,101063.94
2023-01-12T09:11:54.288Z,101055.44
2023-01-12T09:14:21.389Z,101063.19
2023-01-12T09:16:48.413Z,101058.91
2023-01-12T09:19:15.923Z,101061.03
2023-01-12T09:21:43.012Z,101069.75
2023-01-12T09:24:10.984Z,101066.25
2023-01-12T09:26:42.376Z,101068.75
2023-01-12T09:29:10.911Z,101064.53
2023-01-12T09:31:39.045Z,101056.63
2023-01-12T09:34:05.923Z,101053.91
2023-01-12T09:36:34.335Z,101062.81
2023-01-12T09:39:03.366Z,101066.03
2023-01-12T09:41:50.021Z,101055.75
2023-01-12T09:44:37.241Z,101066.31
2023-01-12T09:47:10.410Z,101060.25
2023-01-12T09:49:40.671Z,101052.41
2023-01-12T09:52:16.711Z,101056.84
2023-01-12T09:54:43.853Z,101047.22
2023-01-12T09:57:30.693Z,101042.84
2023-01-12T10:00:09.330Z,101031.47
2023-01-12T10:02:40.012Z,101034.91
2023-01-12T10:05:38.581Z,101032.31
2023-01-12T10:08:06.465Z,101021.78
2023-01-12T10:10:33.215Z,101030.56
2023-01-12T10:13:05.027Z,101030.53
2023-01-12T10:15:38.835Z,101027.06
2023-01-12T10:18:19.951Z,101027.06
2023-01-12T10:20:46.811Z,101021.72
2023-01-12T10:23:15.775Z,101025.28
2023-01-12T10:25:47.438Z,101027.78
2023-01-12T10:28:14.168Z,101024.34
2023-01-12T10:30:41.311Z,101029.63
2023-01-12T10:33:08.814Z,101028.69
2023-01-12T10:35:37.632Z,101032.97
2023-01-12T10:38:13.633Z,101025.75
2023-01-12T10:40:40.445Z,101034.34
2023-01-12T10:43:33.040Z,101018.09
2023-01-12T10:46:02.962Z,101023.03
2023-01-12T10:48:31.153Z,101010.78
2023-01-12T10:50:59.405Z,101015.16
2023-01-12T10:53:29.555Z,101004.94
2023-01-12T10:55:56.737Z,101015.66
2023-01-12T10:58:29.414Z,101006.03
2023-01-12T11:00:56.647Z,101005.50
2023-01-12T11:03:34.028Z,101003.59
2023-01-12T11:06:19.052Z,101005.12
2023-01-12T11:08:45.910Z,101011.56
2023-01-12T11:11:32.473Z,101004.88
2023-01-12T11:14:03.222Z,100997.09
2023-01-12T11:16:41.462Z,100989.59
2023-01-12T11:19:13.121Z,100990.53
2023-01-12T11:21:42.813Z,100986.59
2023-01-12T11:24:14.141Z,100987.13
2023-01-12T11:26:55.068Z,100984.41
2023-01-12T11:29:27.919Z,100974.97
2023-01-12T11:31:58.029Z,100965.87
2023-01-12T11:34:31.195Z,100965.75
2023-01-12T11:37:13.872Z,100953.81
2023-01-12T11:39:43.778Z,100954.12
2023-01-12T11:42:37.373Z,100951.56
2023-01-12T11:45:18.324Z,100962.47
2023-01-12T11:47:49.100Z,100956.06
2023-01-12T11:50:26.973Z,100953.44
2023-01-12T11:52:54.886Z,100946.00
2023-01-12T11:55:42.055Z,100949.37
2023-01-12T11:58:17.654Z,100940.75
2023-01-12T12:01:07.706Z,100940.69
2023-01-12T12:03:43.563Z,100937.41
2023-01-12T12:06:30.235Z,100926.97
2023-01-12T12:09:00.473Z,100923.56
2023-01-12T12:11:41.767Z,100925.94
2023-01-12T12:14:29.263Z,100924.81
2023-01-12T12:17:03.825Z,100919.47
2023-01-12T12:19:34.222Z,100906.97
2023-01-12T12:22:18.325Z,100899.38
2023-01-12T12:25:00.555Z,100901.00
2023-01-12T12:27:52.735Z,100899.00
2023-01-12T12:30:40.125Z,100905.13
2023-01-12T12:33:15.145Z,100906.38
2023-01-12T12:35:49.983Z,100900.97
2023-01-12T12:38:24.976Z,100898.13
2023-01-12T12:41:41.411Z,100897.87
2023-01-12T12:44:46.599Z,100896.16
2023-01-12T12:47:32.377Z,100901.94
2023-01-12T12:50:00.562Z,100899.97
2023-01-12T12:52:35.195Z,100900.84
2023-01-12T12:55:02.602Z,100898.88
2023-01-12T12:58:03.321Z,100892.06
2023-01-12T13:00:47.015Z,100889.28
2023-01-12T13:03:32.525Z,100890.44
2023-01-12T13:06:11.554Z,100885.22
2023-01-12T13:08:39.146Z,100887.31
2023-01-12T13:11:09.674Z,100891.47
2023-01-12T13:13:38.294Z,100886.22
2023-01-12T13:16:13.797Z,100884.59
2023-01-12T13:18:42.443Z,100889.44
2023-01-12T13:21:28.802Z,100883.72
2023-01-12T13:24:19.044Z,100885.84
2023-01-12T13:26:52.721Z,100894.00
2023-01-12T13:29:29.141Z,100888.25
2023-01-12T13:31:59.923Z,100883.69
2023-01-12T13:34:42.513Z,100882.88
2023-01-12T13:37:10.319Z,100876.88
2023-01-12T13:39:39.908Z,100890.75
2023-01-12T13:42:34.653Z,100885.84
2023-01-12T13:45:02.487Z,100883.31
2023-01-12T13:47:33.454Z,100876.84
2023-01-12T13:50:02.316Z,100871.97
2023-01-12T13:52:30.499Z,100873.63
2023-01-12T13:55:02.322Z,100877.78
2023-01-12T13:57:31.330Z,100877.66
2023-01-12T14:00:09.315Z,100874.72
2023-01-12T14:02:57.290Z,100874.09
2023-01-12T14:05:44.223Z,100875.69
2023-01-12T14:08:26.184Z,100867.56
2023-01-12T14:11:04.177Z,100876.09
2023-01-12T14:13:50.800Z,100872.97
2023-01-12T14:17:04.977Z,100872.34
2023-01-12T14:19:32.678Z,100863.69
2023-01-12T14:22:04.882Z,100866.66
2023-01-12T14:24:37.493Z,100865.50
2023-01-12T14:27:17.348Z,100860.25
2023-01-12T14:29:44.636Z,100867.00
2023-01-12T14:32:13.075Z,100869.47
2023-01-12T14:34:49.093Z,100861.66
2023-01-12T14:37:26.891Z,100872.13
2023-01-12T14:39:56.319Z,100872.25
2023-01-12T14:42:42.074Z,100871.31
2023-01-12T14:45:46.373Z,100861.72
2023-01-12T14:48:30.082Z,100861.25
2023-01-12T14:51:01.430Z,100852.69
2023-01-12T14:53:39.295Z,100847.53
2023-01-12T14:56:21.053Z,100852.81
2023-01-12T14:58:48.132Z,100862.69
2023-01-12T15:01:29.309Z,100861.00
2023-01-12T15:03:56.232Z,100860.16
2023-01-12T15:06:23.192Z,100859.25
2023-01-12T15:08:54.456Z,100860.25
2023-01-12T15:11:32.324Z,100854.25
2023-01-12T15:14:01.953Z,100853.34
2023-01-12T15:16:47.359Z,100860.44
2023-01-12T15:19:32.714Z,100858.88
2023-01-12T15:22:18.395Z,100862.59
2023-01-12T15:25:03.702Z,100856.50
2023-01-12T15:27:30.538Z,100867.25
2023-01-12T15:29:57.491Z,100869.38
2023-01-12T15:32:37.996Z,100873.72
2023-01-12T15:35:17.415Z,100874.75
2023-01-12T15:37:44.309Z,100870.56
2023-01-12T15:40:14.297Z,100870.63
2023-01-12T15:42:42.407Z,100865.44
2023-01-12T15:45:29.843Z,100856.78
2023-01-12T15:47:56.848Z,100861.28
2023-01-12T15:50:24.035Z,100852.47
2023-01-12T15:52:51.420Z,100861.34
2023-01-12T15:55:19.399Z,100855.81
2023-01-12T15:57:47.512Z,100870.87
2023-01-12T16:00:15.849Z,100870.00
2023-01-12T16:02:45.604Z,100868.34
2023-01-12T16:05:13.699Z,100871.84
2023-01-12T16:07:40.477Z,100879.72
2023-01-12T16:10:07.714Z,100879.69
2023-01-12T16:12:34.546Z,100881.47
2023-01-12T16:15:01.283Z,100886.50
2023-01-12T16:17:27.985Z,100881.50
2023-01-12T16:19:54.816Z,100878.00
2023-01-12T16:22:26.636Z,100877.94
2023-01-12T16:24:54.591Z,100879.16
2023-01-12T16:27:22.431Z,100873.94
2023-01-12T16:29:49.444Z,100886.12
2023-01-12T16:32:16.901Z,100892.44
2023-01-12T16:34:43.723Z,100885.00
2023-01-12T16:37:16.418Z,100885.22
2023-01-12T16:39:43.489Z,100883.66
2023-01-12T16:42:10.438Z,100880.81
2023-01-12T16:44:38.166Z,100883.16
2023-01-12T16:47:05.937Z,100879.91
2023-01-12T16:49:36.097Z,100884.63
2023-01-12T16:52:04.422Z,100887.69
2023-01-12T16:54:31.272Z,100884.41
2023-01-12T16:56:59.383Z,100878.56
2023-01-12T16:59:28.615Z,100877.47
2023-01-12T17:01:55.693Z,100887.75
2023-01-12T17:04:22.630Z,100894.31
2023-01-12T17:06:49.603Z,100897.16
2023-01-12T17:09:16.912Z,100895.16
2023-01-12T17:11:44.123Z,100891.19
2023-01-12T17:14:24.795Z,100890.19
2023-01-12T17:16:53.561Z,100905.75
2023-01-12T17:19:20.722Z,100904.03
2023-01-12T17:21:50.853Z,100906.16
2023-01-12T17:24:19.956Z,100907.87
2023-01-12T17:26:52.486Z,100898.59
2023-01-12T17:29:20.777Z,100890.03
2023-01-12T17:31:48.299Z,100894.75
2023-01-12T17:34:15.636Z,100891.66
2023-01-12T17:36:43.991Z,100891.84
2023-01-12T17:39:10.837Z,100898.22
2023-01-12T17:41:56.225Z,100899.66
2023-01-12T17:44:23.206Z,100889.75
2023-01-12T17:46:50.078Z,100899.03
2023-01-12T17:49:16.898Z,100884.63
2023-01-12T17:51:43.995Z,100888.50
2023-01-12T17:54:12.153Z,100881.88
2023-01-12T17:56:39.062Z,100877.47
2023-01-12T17:59:06.381Z,100883.75
2023-01-12T18:01:34.786Z,100882.84
2023-01-12T18:04:02.032Z,100874.72
2023-01-12T18:06:28.923Z,100881.94
2023-01-12T18:09:02.145Z,100875.78
2023-01-12T18:11:29.347Z,100868.19
2023-01-12T18:13:56.268Z,100864.31
2023-01-12T18:16:23.491Z,100857.47
2023-01-12T18:18:51.661Z,100866.38
2023-01-12T18:21:22.451Z,100857.22
2023-01-12T18:23:50.569Z,100865.00
2023-01-12T18:26:25.227Z,100872.47
2023-01-12T18:28:52.718Z,100872.34
2023-01-12T18:31:21.057Z,100869.69
2023-01-12T18:33:51.747Z,100868.59
2023-01-12T18:36:19.944Z,100864.41
2023-01-12T18:38:46.868Z,100867.28
2023-01-12T18:41:32.253Z,100866.94
2023-01-12T18:44:02.114Z,100853.09
2023-01-12T18:46:47.186Z,100856.81
2023-01-12T18:49:14.018Z,100863.41
2023-01-12T18:51:59.208Z,100875.13
2023-01-12T18:54:26.099Z,100870.78
2023-01-12T18:56:53.088Z,100868.75
2023-01-12T18:59:19.769Z,100876.63
2023-01-12T19:01:46.569Z,100875.78
2023-01-12T19:04:15.599Z,100865.56
2023-01-12T19:06:47.230Z,100862.31
2023-01-12T19:09:32.735Z,100870.19
2023-01-12T19:11:59.685Z,100864.66
2023-01-12T19:14:45.792Z,100863.53
2023-01-12T19:17:33.241Z,100858.22
2023-01-12T19:20:09.077Z,100852.59
2023-01-12T19:22:54.143Z,100857.63
2023-01-12T19:25:40.973Z,100846.78
2023-01-12T19:28:30.268Z,100849.22
2023-01-12T19:31:01.290Z,100857.00
2023-01-12T19:33:28.700Z,100855.47
2023-01-12T19:35:55.605Z,100853.84
2023-01-12T19:38:22.496Z,100853.06
2023-01-12T19:40:55.786Z,100851.53
2023-01-12T19:43:29.268Z,100846.31
2023-01-12T19:45:59.058Z,100851.59
2023-01-12T19:48:25.942Z,100844.25
2023-01-12T19:50:54.016Z,100848.06
2023-01-12T19:53:26.131Z,100837.25
2023-01-12T19:55:53.349Z,100841.88
2023-01-12T19:58:22.345Z,100840.19
2023-01-12T20:00:50.813Z,100837.50
2023-01-12T20:03:18.750Z,100834.97
2023-01-12T20:05:47.933Z,100829.00
2023-01-12T20:08:17.215Z,100829.63
2023-01-12T20:10:45.807Z,100831.56
2023-01-12T20:13:14.211Z,100830.16
2023-01-12T20:15:42.919Z,100828.75
2023-01-12T20:18:09.842Z,100834.97
2023-01-12T20:20:37.039Z,100833.03
2023-01-12T20:23:03.999Z,100833.66
2023-01-12T20:25:30.984Z,100831.31
2023-01-12T20:27:57.969Z,100834.19
2023-01-12T20:30:37.429Z,100825.50
2023-01-12T20:33:05.916Z,100846.00
2023-01-12T20:35:33.050Z,100841.38
2023-01-12T20:37:59.803Z,100840.78
2023-01-12T20:40:28.232Z,100844.56
2023-01-12T20:42:54.985Z,100845.22
2023-01-12T20:45:21.782Z,100833.13
2023-01-12T20:47:48.624Z,100833.28
2023-01-12T20:50:15.941Z,100842.06
2023-01-12T20:52:42.664Z,100848.13
2023-01-12T20:55:09.548Z,100842.84
2023-01-12T20:57:38.924Z,100828.28
2023-01-12T21:00:06.953Z,100828.91
2023-01-12T21:02:33.943Z,100828.72
2023-01-12T21:05:00.663Z,100825.62
2023-01-12T21:07:27.407Z,100819.38
2023-01-12T21:09:54.119Z,100831.59
2023-01-12T21:12:20.872Z,100830.00
2023-01-12T21:14:47.586Z,100847.22
2023-01-12T21:17:16.907Z,100844.91
2023-01-12T21:19:43.726Z,100842.94
2023-01-12T21:22:10.497Z,100841.25
2023-01-12T21:24:38.712Z,100832.66
2023-01-12T21:27:05.461Z,100826.53
2023-01-12T21:29:32.326Z,100828.75
2023-01-12T21:31:59.056Z,100827.53
2023-01-12T21:34:25.978Z,100823.78
2023-01-12T21:36:52.729Z,100814.78
2023-01-12T21:39:19.504Z,100815.50
2023-01-12T21:42:04.559Z,100823.03
2023-01-12T21:44:31.315Z,100829.84
2023-01-12T21:46:58.035Z,100820.50
2023-01-12T21:49:25.062Z,100812.16
2023-01-12T21:51:51.873Z,100806.81
2023-01-12T21:54:18.653Z,100815.72
2023-01-12T21:56:45.396Z,100808.75
2023-01-12T21:59:12.785Z,100814.72
2023-01-12T22:01:39.612Z,100819.94
2023-01-12T22:04:07.002Z,100826.78
2023-01-12T22:06:34.167Z,100830.78
2023-01-12T22:09:01.254Z,100823.81
2023-01-12T22:11:39.146Z,100822.59
2023-01-12T22:14:05.851Z,100827.19
2023-01-12T22:16:32.711Z,100826.56
2023-01-12T22:18:59.736Z,100821.66
2023-01-12T22:21:28.116Z,100811.75
2023-01-12T22:23:55.023Z,100815.31
2023-01-12T22:26:22.262Z,100814.56
2023-01-12T22:28:49.334Z,100812.66
2023-01-12T22:31:22.695Z,100816.16
2023-01-12T22:33:55.091Z,100808.66
2023-01-12T22:36:21.992Z,100808.81
2023-01-12T22:38:48.692Z,100805.34
2023-01-12T22:41:17.056Z,100807.38
2023-01-12T22:43:45.048Z,100802.87
2023-01-12T22:46:14.765Z,100800.75
2023-01-12T22:48:41.793Z,100802.13
2023-01-12T22:51:08.865Z,100795.94
2023-01-12T22:53:35.852Z,100792.38
2023-01-12T22:56:03.568Z,100794.59
2023-01-12T22:58:30.846Z,100791.62
2023-01-12T23:01:04.694Z,100787.00
2023-01-12T23:03:31.637Z,100785.22
2023-01-12T23:05:58.529Z,100787.88
2023-01-12T23:08:25.592Z,100787.97
2023-01-12T23:10:53.200Z,100787.00
2023-01-12T23:13:21.571Z,100777.28
2023-01-12T23:15:57.242Z,100773.94
2023-01-12T23:18:29.004Z,100770.75
2023-01-12T23:21:15.796Z,100777.56
2023-01-12T23:23:42.613Z,100780.84
2023-01-12T23:26:10.476Z,100769.88
2023-01-12T23:28:41.334Z,100767.25
2023-01-12T23:31:09.958Z,100766.88
2023-01-12T23:33:37.479Z,100769.25
2023-01-12T23:36:08.775Z,100769.69
2023-01-12T23:38:35.867Z,100762.69
2023-01-12T23:41:09.714Z,100769.03
2023-01-12T23:43:37.100Z,100767.25
2023-01-12T23:46:04.880Z,100765.31
2023-01-12T23:48:31.743Z,100766.34
2023-01-12T23:50:59.435Z,100763.88
2023-01-12T23:53:26.807Z,100755.37
2023-01-12T23:55:54.075Z,100760.28
2023-01-12T23:58:21.035Z,100755.37
